sensor_id;sensor_type;location;lat;lon;timestamp;temperature;humidity
76897;SHT30;65856;52.178;21.176;2023-12-29T00:01:09;4.19;78.86
76897;SHT30;65856;52.178;21.176;2023-12-29T00:03:35;4.20;78.96
76897;SHT30;65856;52.178;21.176;2023-12-29T00:06:02;4.20;79.12
76897;SHT30;65856;52.178;21.176;2023-12-29T00:08:28;4.21;79.05
76897;SHT30;65856;52.178;21.176;2023-12-29T00:10:53;4.20;79.10
76897;SHT30;65856;52.178;21.176;2023-12-29T00:13:20;4.20;79.20
76897;SHT30;65856;52.178;21.176;2023-12-29T00:15:51;4.21;79.29
76897;SHT30;65856;52.178;21.176;2023-12-29T00:18:17;4.23;79.40
76897;SHT30;65856;52.178;21.176;2023-12-29T00:20:43;4.24;79.42
76897;SHT30;65856;52.178;21.176;2023-12-29T00:23:08;4.27;79.42
76897;SHT30;65856;52.178;21.176;2023-12-29T00:25:37;4.26;79.59
76897;SHT30;65856;52.178;21.176;2023-12-29T00:28:03;4.28;79.72
76897;SHT30;65856;52.178;21.176;2023-12-29T00:30:30;4.29;79.76
76897;SHT30;65856;52.178;21.176;2023-12-29T00:32:55;4.32;79.99
76897;SHT30;65856;52.178;21.176;2023-12-29T00:35:21;4.36;80.08
76897;SHT30;65856;52.178;21.176;2023-12-29T00:37:47;4.38;80.10
76897;SHT30;65856;52.178;21.176;2023-12-29T00:40:12;4.41;80.19
76897;SHT30;65856;52.178;21.176;2023-12-29T00:42:37;4.45;80.20
76897;SHT30;65856;52.178;21.176;2023-12-29T00:45:03;4.48;80.27
76897;SHT30;65856;52.178;21.176;2023-12-29T00:47:30;4.49;80.33
76897;SHT30;65856;52.178;21.176;2023-12-29T00:49:56;4.52;80.31
76897;SHT30;65856;52.178;21.176;2023-12-29T00:52:21;4.54;80.30
76897;SHT30;65856;52.178;21.176;2023-12-29T00:54:46;4.55;80.30
76897;SHT30;65856;52.178;21.176;2023-12-29T00:57:12;4.57;80.30
76897;SHT30;65856;52.178;21.176;2023-12-29T00:59:38;4.59;80.30
76897;SHT30;65856;52.178;21.176;2023-12-29T01:02:05;4.61;80.30
76897;SHT30;65856;52.178;21.176;2023-12-29T01:04:30;4.63;80.28
76897;SHT30;65856;52.178;21.176;2023-12-29T01:06:56;4.65;80.29
76897;SHT30;65856;52.178;21.176;2023-12-29T01:09:21;4.67;80.22
76897;SHT30;65856;52.178;21.176;2023-12-29T01:11:47;4.68;80.21
76897;SHT30;65856;52.178;21.176;2023-12-29T01:14:12;4.69;80.20
76897;SHT30;65856;52.178;21.176;2023-12-29T01:16:38;4.72;80.16
76897;SHT30;65856;52.178;21.176;2023-12-29T01:19:05;4.72;80.11
76897;SHT30;65856;52.178;21.176;2023-12-29T01:21:30;4.72;80.10
76897;SHT30;65856;52.178;21.176;2023-12-29T01:23:59;4.73;80.09
76897;SHT30;65856;52.178;21.176;2023-12-29T01:26:26;4.76;80.05
76897;SHT30;65856;52.178;21.176;2023-12-29T01:28:51;4.76;79.99
76897;SHT30;65856;52.178;21.176;2023-12-29T01:31:17;4.75;79.94
76897;SHT30;65856;52.178;21.176;2023-12-29T01:33:42;4.76;79.96
76897;SHT30;65856;52.178;21.176;2023-12-29T01:36:08;4.76;79.92
76897;SHT30;65856;52.178;21.176;2023-12-29T01:38:33;4.78;79.85
76897;SHT30;65856;52.178;21.176;2023-12-29T01:40:59;4.80;79.80
76897;SHT30;65856;52.178;21.176;2023-12-29T01:43:24;4.79;79.71
76897;SHT30;65856;52.178;21.176;2023-12-29T01:45:49;4.78;79.67
76897;SHT30;65856;52.178;21.176;2023-12-29T01:48:15;4.77;79.60
76897;SHT30;65856;52.178;21.176;2023-12-29T01:50:40;4.76;79.56
76897;SHT30;65856;52.178;21.176;2023-12-29T01:53:06;4.76;79.50
76897;SHT30;65856;52.178;21.176;2023-12-29T01:55:32;4.73;79.32
76897;SHT30;65856;52.178;21.176;2023-12-29T01:57:58;4.70;79.16
76897;SHT30;65856;52.178;21.176;2023-12-29T02:00:24;4.66;79.02
76897;SHT30;65856;52.178;21.176;2023-12-29T02:02:51;4.63;79.03
76897;SHT30;65856;52.178;21.176;2023-12-29T02:05:16;4.57;79.02
76897;SHT30;65856;52.178;21.176;2023-12-29T02:07:45;4.49;79.19
76897;SHT30;65856;52.178;21.176;2023-12-29T02:10:11;4.46;79.16
76897;SHT30;65856;52.178;21.176;2023-12-29T02:12:40;4.43;79.02
76897;SHT30;65856;52.178;21.176;2023-12-29T02:15:06;4.39;79.00
76897;SHT30;65856;52.178;21.176;2023-12-29T02:17:52;4.37;79.05
76897;SHT30;65856;52.178;21.176;2023-12-29T02:20:31;4.32;79.01
76897;SHT30;65856;52.178;21.176;2023-12-29T02:22:56;4.29;79.14
76897;SHT30;65856;52.178;21.176;2023-12-29T02:25:22;4.26;79.12
76897;SHT30;65856;52.178;21.176;2023-12-29T02:30:50;4.27;79.51
76897;SHT30;65856;52.178;21.176;2023-12-29T02:33:21;4.25;79.68
76897;SHT30;65856;52.178;21.176;2023-12-29T02:35:48;4.26;79.71
76897;SHT30;65856;52.178;21.176;2023-12-29T02:38:16;4.26;79.77
76897;SHT30;65856;52.178;21.176;2023-12-29T02:40:42;4.25;79.88
76897;SHT30;65856;52.178;21.176;2023-12-29T02:43:08;4.27;79.90
76897;SHT30;65856;52.178;21.176;2023-12-29T02:45:34;4.27;80.00
76897;SHT30;65856;52.178;21.176;2023-12-29T02:47:59;4.26;80.13
76897;SHT30;65856;52.178;21.176;2023-12-29T02:50:25;4.24;80.22
76897;SHT30;65856;52.178;21.176;2023-12-29T02:52:50;4.23;80.35
76897;SHT30;65856;52.178;21.176;2023-12-29T02:55:15;4.22;80.40
76897;SHT30;65856;52.178;21.176;2023-12-29T02:57:41;4.23;80.42
76897;SHT30;65856;52.178;21.176;2023-12-29T03:00:06;4.23;80.40
76897;SHT30;65856;52.178;21.176;2023-12-29T03:02:32;4.23;80.50
76897;SHT30;65856;52.178;21.176;2023-12-29T03:04:58;4.24;80.50
76897;SHT30;65856;52.178;21.176;2023-12-29T03:07:24;4.24;80.42
76897;SHT30;65856;52.178;21.176;2023-12-29T03:09:50;4.23;80.48
76897;SHT30;65856;52.178;21.176;2023-12-29T03:12:15;4.23;80.58
76897;SHT30;65856;52.178;21.176;2023-12-29T03:14:40;4.22;80.63
76897;SHT30;65856;52.178;21.176;2023-12-29T03:17:06;4.21;80.70
76897;SHT30;65856;52.178;21.176;2023-12-29T03:19:31;4.21;80.70
76897;SHT30;65856;52.178;21.176;2023-12-29T03:21:57;4.23;80.71
76897;SHT30;65856;52.178;21.176;2023-12-29T03:24:22;4.21;80.79
76897;SHT30;65856;52.178;21.176;2023-12-29T03:26:48;4.21;80.80
76897;SHT30;65856;52.178;21.176;2023-12-29T03:29:13;4.21;80.80
76897;SHT30;65856;52.178;21.176;2023-12-29T03:31:38;4.21;80.79
76897;SHT30;65856;52.178;21.176;2023-12-29T03:34:04;4.20;80.84
76897;SHT30;65856;52.178;21.176;2023-12-29T03:36:30;4.19;80.94
76897;SHT30;65856;52.178;21.176;2023-12-29T03:38:56;4.19;80.92
76897;SHT30;65856;52.178;21.176;2023-12-29T03:41:21;4.18;80.99
76897;SHT30;65856;52.178;21.176;2023-12-29T03:43:46;4.17;81.02
76897;SHT30;65856;52.178;21.176;2023-12-29T03:46:18;4.19;81.08
76897;SHT30;65856;52.178;21.176;2023-12-29T03:48:45;4.18;81.16
76897;SHT30;65856;52.178;21.176;2023-12-29T03:51:11;4.19;81.17
76897;SHT30;65856;52.178;21.176;2023-12-29T03:53:37;4.20;81.12
76897;SHT30;65856;52.178;21.176;2023-12-29T03:56:08;4.20;81.10
76897;SHT30;65856;52.178;21.176;2023-12-29T03:58:38;4.20;81.14
76897;SHT30;65856;52.178;21.176;2023-12-29T04:01:03;4.18;81.18
76897;SHT30;65856;52.178;21.176;2023-12-29T04:03:29;4.16;81.12
76897;SHT30;65856;52.178;21.176;2023-12-29T04:05:54;4.15;81.16
76897;SHT30;65856;52.178;21.176;2023-12-29T04:08:20;4.12;81.31
76897;SHT30;65856;52.178;21.176;2023-12-29T04:10:45;4.12;81.30
76897;SHT30;65856;52.178;21.176;2023-12-29T04:13:11;4.12;81.38
76897;SHT30;65856;52.178;21.176;2023-12-29T04:15:36;4.11;81.33
76897;SHT30;65856;52.178;21.176;2023-12-29T04:18:02;4.10;81.38
76897;SHT30;65856;52.178;21.176;2023-12-29T04:20:27;4.09;81.38
76897;SHT30;65856;52.178;21.176;2023-12-29T04:22:53;4.08;81.39
76897;SHT30;65856;52.178;21.176;2023-12-29T04:25:18;4.09;81.36
76897;SHT30;65856;52.178;21.176;2023-12-29T04:27:44;4.10;81.32
76897;SHT30;65856;52.178;21.176;2023-12-29T04:30:09;4.09;81.32
76897;SHT30;65856;52.178;21.176;2023-12-29T04:32:35;4.10;81.31
76897;SHT30;65856;52.178;21.176;2023-12-29T04:35:00;4.09;81.30
76897;SHT30;65856;52.178;21.176;2023-12-29T04:37:26;4.09;81.33
76897;SHT30;65856;52.178;21.176;2023-12-29T04:39:51;4.07;81.41
76897;SHT30;65856;52.178;21.176;2023-12-29T04:42:17;4.06;81.42
76897;SHT30;65856;52.178;21.176;2023-12-29T04:44:43;4.04;81.52
76897;SHT30;65856;52.178;21.176;2023-12-29T04:47:09;4.03;81.58
76897;SHT30;65856;52.178;21.176;2023-12-29T04:49:35;4.01;81.55
76897;SHT30;65856;52.178;21.176;2023-12-29T04:52:00;4.00;81.54
76897;SHT30;65856;52.178;21.176;2023-12-29T04:54:26;4.01;81.50
76897;SHT30;65856;52.178;21.176;2023-12-29T04:56:52;3.99;81.48
76897;SHT30;65856;52.178;21.176;2023-12-29T04:59:17;3.99;81.58
76897;SHT30;65856;52.178;21.176;2023-12-29T05:01:42;3.96;81.70
76897;SHT30;65856;52.178;21.176;2023-12-29T05:04:08;3.96;81.70
76897;SHT30;65856;52.178;21.176;2023-12-29T05:06:33;3.95;81.80
76897;SHT30;65856;52.178;21.176;2023-12-29T05:08:58;3.96;81.86
76897;SHT30;65856;52.178;21.176;2023-12-29T05:11:24;3.98;81.96
76897;SHT30;65856;52.178;21.176;2023-12-29T05:13:49;3.99;82.01
76897;SHT30;65856;52.178;21.176;2023-12-29T05:16:15;4.01;82.10
76897;SHT30;65856;52.178;21.176;2023-12-29T05:18:40;4.03;82.16
76897;SHT30;65856;52.178;21.176;2023-12-29T05:21:05;4.05;82.21
76897;SHT30;65856;52.178;21.176;2023-12-29T05:23:41;4.09;82.27
76897;SHT30;65856;52.178;21.176;2023-12-29T05:26:07;4.12;82.29
76897;SHT30;65856;52.178;21.176;2023-12-29T05:28:32;4.15;82.30
76897;SHT30;65856;52.178;21.176;2023-12-29T05:30:57;4.16;82.30
76897;SHT30;65856;52.178;21.176;2023-12-29T05:33:24;4.20;82.30
76897;SHT30;65856;52.178;21.176;2023-12-29T05:35:49;4.23;82.30
76897;SHT30;65856;52.178;21.176;2023-12-29T05:38:14;4.25;82.31
76897;SHT30;65856;52.178;21.176;2023-12-29T05:40:40;4.28;82.31
76897;SHT30;65856;52.178;21.176;2023-12-29T05:43:05;4.31;82.31
76897;SHT30;65856;52.178;21.176;2023-12-29T05:45:31;4.34;82.31
76897;SHT30;65856;52.178;21.176;2023-12-29T05:47:56;4.38;82.30
76897;SHT30;65856;52.178;21.176;2023-12-29T05:50:21;4.41;82.30
76897;SHT30;65856;52.178;21.176;2023-12-29T05:52:47;4.42;82.31
76897;SHT30;65856;52.178;21.176;2023-12-29T05:55:16;4.45;82.36
76897;SHT30;65856;52.178;21.176;2023-12-29T05:57:42;4.48;82.35
76897;SHT30;65856;52.178;21.176;2023-12-29T06:00:07;4.57;82.51
76897;SHT30;65856;52.178;21.176;2023-12-29T06:02:39;4.67;82.33
76897;SHT30;65856;52.178;21.176;2023-12-29T06:05:05;4.68;82.30
76897;SHT30;65856;52.178;21.176;2023-12-29T06:07:31;4.71;82.30
76897;SHT30;65856;52.178;21.176;2023-12-29T06:09:57;4.74;82.39
76897;SHT30;65856;52.178;21.176;2023-12-29T06:12:22;4.87;82.29
76897;SHT30;65856;52.178;21.176;2023-12-29T06:14:47;4.91;82.14
76897;SHT30;65856;52.178;21.176;2023-12-29T06:17:13;5.01;82.14
76897;SHT30;65856;52.178;21.176;2023-12-29T06:19:39;5.03;81.93
76897;SHT30;65856;52.178;21.176;2023-12-29T06:22:04;5.05;81.85
76897;SHT30;65856;52.178;21.176;2023-12-29T06:24:30;5.05;81.80
76897;SHT30;65856;52.178;21.176;2023-12-29T06:26:55;5.05;81.79
76897;SHT30;65856;52.178;21.176;2023-12-29T06:29:20;5.06;81.73
76897;SHT30;65856;52.178;21.176;2023-12-29T06:31:46;5.06;81.70
76897;SHT30;65856;52.178;21.176;2023-12-29T06:34:11;5.07;81.70
76897;SHT30;65856;52.178;21.176;2023-12-29T06:36:37;5.07;81.68
76897;SHT30;65856;52.178;21.176;2023-12-29T06:39:02;5.06;81.68
76897;SHT30;65856;52.178;21.176;2023-12-29T06:41:27;5.06;81.70
76897;SHT30;65856;52.178;21.176;2023-12-29T06:43:53;5.04;81.69
76897;SHT30;65856;52.178;21.176;2023-12-29T06:46:18;5.03;81.69
76897;SHT30;65856;52.178;21.176;2023-12-29T06:48:43;5.02;81.64
76897;SHT30;65856;52.178;21.176;2023-12-29T06:51:09;5.02;81.61
76897;SHT30;65856;52.178;21.176;2023-12-29T06:53:36;5.02;81.60
76897;SHT30;65856;52.178;21.176;2023-12-29T06:56:01;5.03;81.54
76897;SHT30;65856;52.178;21.176;2023-12-29T06:58:27;5.03;81.61
76897;SHT30;65856;52.178;21.176;2023-12-29T07:00:52;5.03;81.60
76897;SHT30;65856;52.178;21.176;2023-12-29T07:03:17;5.03;81.70
76897;SHT30;65856;52.178;21.176;2023-12-29T07:05:43;5.04;81.70
76897;SHT30;65856;52.178;21.176;2023-12-29T07:08:08;5.05;81.69
76897;SHT30;65856;52.178;21.176;2023-12-29T07:10:34;5.07;81.74
76897;SHT30;65856;52.178;21.176;2023-12-29T07:12:59;5.09;81.72
76897;SHT30;65856;52.178;21.176;2023-12-29T07:15:24;5.09;81.71
76897;SHT30;65856;52.178;21.176;2023-12-29T07:17:50;5.08;81.70
76897;SHT30;65856;52.178;21.176;2023-12-29T07:20:15;5.08;81.71
76897;SHT30;65856;52.178;21.176;2023-12-29T07:22:41;5.08;81.79
76897;SHT30;65856;52.178;21.176;2023-12-29T07:25:06;5.07;81.80
76897;SHT30;65856;52.178;21.176;2023-12-29T07:27:32;5.09;81.73
76897;SHT30;65856;52.178;21.176;2023-12-29T07:29:57;5.10;81.77
76897;SHT30;65856;52.178;21.176;2023-12-29T07:32:23;5.11;81.80
76897;SHT30;65856;52.178;21.176;2023-12-29T07:34:48;5.12;81.80
76897;SHT30;65856;52.178;21.176;2023-12-29T07:37:14;5.14;81.80
76897;SHT30;65856;52.178;21.176;2023-12-29T07:39:39;5.16;81.80
76897;SHT30;65856;52.178;21.176;2023-12-29T07:42:04;5.16;81.88
76897;SHT30;65856;52.178;21.176;2023-12-29T07:44:30;5.18;81.94
76897;SHT30;65856;52.178;21.176;2023-12-29T07:46:57;5.21;81.99
76897;SHT30;65856;52.178;21.176;2023-12-29T07:49:22;5.24;82.00
76897;SHT30;65856;52.178;21.176;2023-12-29T07:51:48;5.27;82.10
76897;SHT30;65856;52.178;21.176;2023-12-29T07:54:13;5.32;82.16
76897;SHT30;65856;52.178;21.176;2023-12-29T07:56:39;5.34;82.19
76897;SHT30;65856;52.178;21.176;2023-12-29T07:59:04;5.37;82.20
76897;SHT30;65856;52.178;21.176;2023-12-29T08:01:30;5.41;82.22
76897;SHT30;65856;52.178;21.176;2023-12-29T08:03:55;5.43;82.26
76897;SHT30;65856;52.178;21.176;2023-12-29T08:06:20;5.46;82.22
76897;SHT30;65856;52.178;21.176;2023-12-29T08:08:46;5.51;82.22
76897;SHT30;65856;52.178;21.176;2023-12-29T08:11:14;5.54;82.20
76897;SHT30;65856;52.178;21.176;2023-12-29T08:13:43;5.57;82.15
76897;SHT30;65856;52.178;21.176;2023-12-29T08:16:10;5.59;82.10
76897;SHT30;65856;52.178;21.176;2023-12-29T08:18:36;5.62;82.10
76897;SHT30;65856;52.178;21.176;2023-12-29T08:21:01;5.65;82.03
76897;SHT30;65856;52.178;21.176;2023-12-29T08:23:27;5.67;82.00
76897;SHT30;65856;52.178;21.176;2023-12-29T08:25:53;5.69;81.98
76897;SHT30;65856;52.178;21.176;2023-12-29T08:28:18;5.72;81.90
76897;SHT30;65856;52.178;21.176;2023-12-29T08:30:44;5.73;81.83
76897;SHT30;65856;52.178;21.176;2023-12-29T08:33:12;5.76;81.79
76897;SHT30;65856;52.178;21.176;2023-12-29T08:35:41;5.77;81.73
76897;SHT30;65856;52.178;21.176;2023-12-29T08:38:07;5.80;81.64
76897;SHT30;65856;52.178;21.176;2023-12-29T08:40:32;5.81;81.60
76897;SHT30;65856;52.178;21.176;2023-12-29T08:42:58;5.84;81.59
76897;SHT30;65856;52.178;21.176;2023-12-29T08:45:23;5.88;81.54
76897;SHT30;65856;52.178;21.176;2023-12-29T08:47:49;5.92;81.43
76897;SHT30;65856;52.178;21.176;2023-12-29T08:50:14;5.96;81.41
76897;SHT30;65856;52.178;21.176;2023-12-29T08:52:40;6.07;81.32
76897;SHT30;65856;52.178;21.176;2023-12-29T08:55:06;6.27;81.20
76897;SHT30;65856;52.178;21.176;2023-12-29T08:57:33;6.45;81.01
76897;SHT30;65856;52.178;21.176;2023-12-29T08:59:59;6.64;80.65
76897;SHT30;65856;52.178;21.176;2023-12-29T09:02:24;6.82;80.35
76897;SHT30;65856;52.178;21.176;2023-12-29T09:04:50;6.95;80.07
76897;SHT30;65856;52.178;21.176;2023-12-29T09:07:15;7.12;79.87
76897;SHT30;65856;52.178;21.176;2023-12-29T09:09:41;7.33;79.42
76897;SHT30;65856;52.178;21.176;2023-12-29T09:12:06;7.51;78.94
76897;SHT30;65856;52.178;21.176;2023-12-29T09:14:32;7.66;78.70
76897;SHT30;65856;52.178;21.176;2023-12-29T09:16:59;7.74;78.36
76897;SHT30;65856;52.178;21.176;2023-12-29T09:19:25;7.76;78.18
76897;SHT30;65856;52.178;21.176;2023-12-29T09:21:50;7.75;78.03
76897;SHT30;65856;52.178;21.176;2023-12-29T09:24:16;7.72;77.83
76897;SHT30;65856;52.178;21.176;2023-12-29T09:26:41;7.67;77.70
76897;SHT30;65856;52.178;21.176;2023-12-29T09:29:06;7.65;77.74
76897;SHT30;65856;52.178;21.176;2023-12-29T09:31:32;7.66;77.68
76897;SHT30;65856;52.178;21.176;2023-12-29T09:33:58;7.66;77.54
76897;SHT30;65856;52.178;21.176;2023-12-29T09:36:23;7.68;77.62
76897;SHT30;65856;52.178;21.176;2023-12-29T09:38:49;7.76;77.56
76897;SHT30;65856;52.178;21.176;2023-12-29T09:41:15;7.88;77.42
76897;SHT30;65856;52.178;21.176;2023-12-29T09:43:41;8.05;77.20
76897;SHT30;65856;52.178;21.176;2023-12-29T09:46:09;8.20;76.97
76897;SHT30;65856;52.178;21.176;2023-12-29T09:48:36;8.32;76.53
76897;SHT30;65856;52.178;21.176;2023-12-29T09:51:04;8.44;76.30
76897;SHT30;65856;52.178;21.176;2023-12-29T09:53:31;8.60;76.25
76897;SHT30;65856;52.178;21.176;2023-12-29T09:55:59;8.73;75.99
76897;SHT30;65856;52.178;21.176;2023-12-29T09:58:28;8.81;75.67
76897;SHT30;65856;52.178;21.176;2023-12-29T10:00:53;8.81;75.54
76897;SHT30;65856;52.178;21.176;2023-12-29T10:03:19;8.78;75.43
76897;SHT30;65856;52.178;21.176;2023-12-29T10:05:45;8.78;75.38
76897;SHT30;65856;52.178;21.176;2023-12-29T10:08:16;8.81;75.47
76897;SHT30;65856;52.178;21.176;2023-12-29T10:10:42;8.81;75.41
76897;SHT30;65856;52.178;21.176;2023-12-29T10:13:08;8.79;75.03
76897;SHT30;65856;52.178;21.176;2023-12-29T10:15:42;8.78;75.17
76897;SHT30;65856;52.178;21.176;2023-12-29T10:18:22;8.86;75.20
76897;SHT30;65856;52.178;21.176;2023-12-29T10:21:01;9.00;75.18
76897;SHT30;65856;52.178;21.176;2023-12-29T10:23:42;9.12;75.15
76897;SHT30;65856;52.178;21.176;2023-12-29T10:26:15;9.18;74.88
76897;SHT30;65856;52.178;21.176;2023-12-29T10:28:41;9.19;74.60
76897;SHT30;65856;52.178;21.176;2023-12-29T10:31:06;9.20;74.64
76897;SHT30;65856;52.178;21.176;2023-12-29T10:33:35;9.26;74.48
76897;SHT30;65856;52.178;21.176;2023-12-29T10:36:03;9.28;74.55
76897;SHT30;65856;52.178;21.176;2023-12-29T10:38:32;9.35;74.55
76897;SHT30;65856;52.178;21.176;2023-12-29T10:41:14;9.42;74.32
76897;SHT30;65856;52.178;21.176;2023-12-29T10:43:44;9.47;73.94
76897;SHT30;65856;52.178;21.176;2023-12-29T10:46:17;9.48;73.71
76897;SHT30;65856;52.178;21.176;2023-12-29T10:48:42;9.48;74.02
76897;SHT30;65856;52.178;21.176;2023-12-29T10:51:08;9.51;73.92
76897;SHT30;65856;52.178;21.176;2023-12-29T10:53:34;9.51;73.96
76897;SHT30;65856;52.178;21.176;2023-12-29T10:56:01;9.51;73.87
76897;SHT30;65856;52.178;21.176;2023-12-29T10:58:27;9.54;73.69
76897;SHT30;65856;52.178;21.176;2023-12-29T11:00:58;9.57;73.71
76897;SHT30;65856;52.178;21.176;2023-12-29T11:03:27;9.64;73.65
76897;SHT30;65856;52.178;21.176;2023-12-29T11:05:59;9.71;73.55
76897;SHT30;65856;52.178;21.176;2023-12-29T11:08:27;9.80;73.39
76897;SHT30;65856;52.178;21.176;2023-12-29T11:10:53;9.90;73.25
76897;SHT30;65856;52.178;21.176;2023-12-29T11:13:20;10.01;73.08
76897;SHT30;65856;52.178;21.176;2023-12-29T11:15:45;10.11;72.83
76897;SHT30;65856;52.178;21.176;2023-12-29T11:18:12;10.16;72.28
76897;SHT30;65856;52.178;21.176;2023-12-29T11:20:40;10.18;72.17
76897;SHT30;65856;52.178;21.176;2023-12-29T11:23:07;10.19;71.88
76897;SHT30;65856;52.178;21.176;2023-12-29T11:25:39;10.19;71.87
76897;SHT30;65856;52.178;21.176;2023-12-29T11:28:06;10.19;71.59
76897;SHT30;65856;52.178;21.176;2023-12-29T11:30:39;10.20;71.72
76897;SHT30;65856;52.178;21.176;2023-12-29T11:41:42;10.21;71.01
76897;SHT30;65856;52.178;21.176;2023-12-29T11:44:46;10.23;71.10
76897;SHT30;65856;52.178;21.176;2023-12-29T11:50:03;10.21;71.04
76897;SHT30;65856;52.178;21.176;2023-12-29T11:52:33;10.21;70.97
76897;SHT30;65856;52.178;21.176;2023-12-29T11:55:10;10.20;71.00
76897;SHT30;65856;52.178;21.176;2023-12-29T11:57:37;10.20;70.91
76897;SHT30;65856;52.178;21.176;2023-12-29T12:00:05;10.20;70.90
76897;SHT30;65856;52.178;21.176;2023-12-29T12:02:31;10.19;70.82
76897;SHT30;65856;52.178;21.176;2023-12-29T12:04:57;10.19;70.78
76897;SHT30;65856;52.178;21.176;2023-12-29T12:09:51;10.19;70.86
76897;SHT30;65856;52.178;21.176;2023-12-29T12:15:30;10.20;70.57
76897;SHT30;65856;52.178;21.176;2023-12-29T12:18:00;10.20;70.49
76897;SHT30;65856;52.178;21.176;2023-12-29T12:20:34;10.19;70.45
76897;SHT30;65856;52.178;21.176;2023-12-29T12:23:01;10.21;70.42
76897;SHT30;65856;52.178;21.176;2023-12-29T12:25:31;10.20;70.39
76897;SHT30;65856;52.178;21.176;2023-12-29T12:28:05;10.19;70.44
76897;SHT30;65856;52.178;21.176;2023-12-29T12:30:35;10.18;70.41
76897;SHT30;65856;52.178;21.176;2023-12-29T12:33:01;10.17;70.31
76897;SHT30;65856;52.178;21.176;2023-12-29T12:35:28;10.16;70.37
76897;SHT30;65856;52.178;21.176;2023-12-29T12:40:55;10.12;70.64
76897;SHT30;65856;52.178;21.176;2023-12-29T12:43:21;10.11;70.66
76897;SHT30;65856;52.178;21.176;2023-12-29T12:45:55;10.11;70.75
76897;SHT30;65856;52.178;21.176;2023-12-29T12:51:08;10.12;70.71
76897;SHT30;65856;52.178;21.176;2023-12-29T12:53:38;10.11;70.64
76897;SHT30;65856;52.178;21.176;2023-12-29T12:56:09;10.12;70.63
76897;SHT30;65856;52.178;21.176;2023-12-29T12:58:35;10.12;70.55
76897;SHT30;65856;52.178;21.176;2023-12-29T13:01:01;10.12;70.55
76897;SHT30;65856;52.178;21.176;2023-12-29T13:03:27;10.14;70.56
76897;SHT30;65856;52.178;21.176;2023-12-29T13:05:53;10.13;70.51
76897;SHT30;65856;52.178;21.176;2023-12-29T13:08:19;10.14;70.52
76897;SHT30;65856;52.178;21.176;2023-12-29T13:10:45;10.13;70.50
76897;SHT30;65856;52.178;21.176;2023-12-29T13:13:10;10.13;70.41
76897;SHT30;65856;52.178;21.176;2023-12-29T13:15:48;10.13;70.49
76897;SHT30;65856;52.178;21.176;2023-12-29T13:18:15;10.13;70.51
76897;SHT30;65856;52.178;21.176;2023-12-29T13:20:47;10.12;70.56
76897;SHT30;65856;52.178;21.176;2023-12-29T13:23:13;10.12;70.40
76897;SHT30;65856;52.178;21.176;2023-12-29T13:25:39;10.12;70.56
76897;SHT30;65856;52.178;21.176;2023-12-29T13:28:08;10.10;70.53
76897;SHT30;65856;52.178;21.176;2023-12-29T13:30:34;10.10;70.62
76897;SHT30;65856;52.178;21.176;2023-12-29T13:33:03;10.10;70.55
76897;SHT30;65856;52.178;21.176;2023-12-29T13:35:39;10.09;70.54
76897;SHT30;65856;52.178;21.176;2023-12-29T13:38:28;10.09;70.44
76897;SHT30;65856;52.178;21.176;2023-12-29T13:41:00;10.10;70.59
76897;SHT30;65856;52.178;21.176;2023-12-29T13:43:32;10.09;70.60
76897;SHT30;65856;52.178;21.176;2023-12-29T13:46:00;10.08;70.51
76897;SHT30;65856;52.178;21.176;2023-12-29T13:48:28;10.06;70.48
76897;SHT30;65856;52.178;21.176;2023-12-29T13:50:54;10.06;70.55
76897;SHT30;65856;52.178;21.176;2023-12-29T13:53:20;10.05;70.50
76897;SHT30;65856;52.178;21.176;2023-12-29T13:55:47;10.03;70.58
76897;SHT30;65856;52.178;21.176;2023-12-29T13:58:13;10.03;70.61
76897;SHT30;65856;52.178;21.176;2023-12-29T14:00:41;10.03;70.63
76897;SHT30;65856;52.178;21.176;2023-12-29T14:03:15;10.02;70.61
76897;SHT30;65856;52.178;21.176;2023-12-29T14:05:53;10.02;70.75
76897;SHT30;65856;52.178;21.176;2023-12-29T14:11:09;9.99;70.89
76897;SHT30;65856;52.178;21.176;2023-12-29T14:13:39;9.96;70.89
76897;SHT30;65856;52.178;21.176;2023-12-29T14:16:07;9.95;70.85
76897;SHT30;65856;52.178;21.176;2023-12-29T14:26:40;9.82;71.03
76897;SHT30;65856;52.178;21.176;2023-12-29T14:29:12;9.81;71.18
76897;SHT30;65856;52.178;21.176;2023-12-29T14:31:38;9.80;71.20
76897;SHT30;65856;52.178;21.176;2023-12-29T14:34:06;9.79;71.25
76897;SHT30;65856;52.178;21.176;2023-12-29T14:36:32;9.78;71.32
76897;SHT30;65856;52.178;21.176;2023-12-29T14:38:58;9.78;71.40
76897;SHT30;65856;52.178;21.176;2023-12-29T14:41:24;9.77;71.48
76897;SHT30;65856;52.178;21.176;2023-12-29T14:43:50;9.78;71.50
76897;SHT30;65856;52.178;21.176;2023-12-29T14:46:16;9.76;71.53
76897;SHT30;65856;52.178;21.176;2023-12-29T14:48:41;9.76;71.60
76897;SHT30;65856;52.178;21.176;2023-12-29T14:51:07;9.77;71.65
76897;SHT30;65856;52.178;21.176;2023-12-29T14:53:32;9.76;71.70
76897;SHT30;65856;52.178;21.176;2023-12-29T14:55:58;9.77;71.70
76897;SHT30;65856;52.178;21.176;2023-12-29T14:58:24;9.76;71.71
76897;SHT30;65856;52.178;21.176;2023-12-29T15:00:49;9.73;71.70
76897;SHT30;65856;52.178;21.176;2023-12-29T15:03:15;9.72;71.71
76897;SHT30;65856;52.178;21.176;2023-12-29T15:05:41;9.69;71.70
76897;SHT30;65856;52.178;21.176;2023-12-29T15:08:08;9.66;71.75
76897;SHT30;65856;52.178;21.176;2023-12-29T15:10:34;9.63;71.80
76897;SHT30;65856;52.178;21.176;2023-12-29T15:13:00;9.61;71.80
76897;SHT30;65856;52.178;21.176;2023-12-29T15:15:26;9.59;71.81
76897;SHT30;65856;52.178;21.176;2023-12-29T15:17:52;9.56;71.89
76897;SHT30;65856;52.178;21.176;2023-12-29T15:20:17;9.55;71.93
76897;SHT30;65856;52.178;21.176;2023-12-29T15:22:42;9.54;72.02
76897;SHT30;65856;52.178;21.176;2023-12-29T15:25:08;9.54;72.08
76897;SHT30;65856;52.178;21.176;2023-12-29T15:27:34;9.51;72.18
76897;SHT30;65856;52.178;21.176;2023-12-29T15:30:00;9.47;72.22
76897;SHT30;65856;52.178;21.176;2023-12-29T15:32:26;9.42;72.27
76897;SHT30;65856;52.178;21.176;2023-12-29T15:34:51;9.41;72.21
76897;SHT30;65856;52.178;21.176;2023-12-29T15:37:16;9.39;72.21
76897;SHT30;65856;52.178;21.176;2023-12-29T15:39:44;9.35;72.28
76897;SHT30;65856;52.178;21.176;2023-12-29T15:42:10;9.28;72.32
76897;SHT30;65856;52.178;21.176;2023-12-29T15:44:35;9.24;72.39
76897;SHT30;65856;52.178;21.176;2023-12-29T15:47:00;9.20;72.48
76897;SHT30;65856;52.178;21.176;2023-12-29T15:49:26;9.16;72.52
76897;SHT30;65856;52.178;21.176;2023-12-29T15:51:51;9.11;72.64
76897;SHT30;65856;52.178;21.176;2023-12-29T15:54:17;9.05;72.72
76897;SHT30;65856;52.178;21.176;2023-12-29T15:56:42;9.00;72.86
76897;SHT30;65856;52.178;21.176;2023-12-29T15:59:07;8.97;72.96
76897;SHT30;65856;52.178;21.176;2023-12-29T16:01:33;8.91;73.07